Mullen High School (Denver), Colorado
Current Conditions -  °F | °C
As of 3:53 PM on Friday 19 Dec 2014 (Local Time) from KAPA Reporting Station
Scattered Clouds Scattered Clouds  
Wind Chill: 35°   Ceiling: Unl
Heat Index: 40°   Visibility: 10mi
Dew Point: 14°   Wind: 7mph
Humidity: 35%   Direction: 160°SSE
Pressure: 30"   Gusts: NA
Location:  39.65261°N, 105.0351°W
Report Text: KAPA 192253Z 16006KT 10SM FEW120 FEW140 SCT200 04/M10 A3000 RMK AO2 SLP183 T00441100
Loading
Personal Weather Stations






























Interactive Weather Map New forecast layout! Learn more

10-Day Weather Forecast

Advertisements
Track Severe Weather on mobile